New Yoshino — JG5527 — position and weather

sailwx.info

Track history (hours):
 
Tides and Currents Weather Stations Pressure Air Temp Water Temp Dewpoint Dewpoint Depression Visibility Wind Speed Wind Dir Waves Ship Positions

New Yoshino

Last reported at 2014-Sep-15 23:13 UTC. Time now 2014-Sep-16 02:54 UTC.
Position N 36°01' E 141°03'.

Length 102 m; draft 6.7 m.

Type: Tanker. MMSI: 431300724.

Date/timePositionNaut miles runAvg speedWind from/ knotsBaromVisibWave heightAir tempDewpointWater temp
2014-Sep-15 23:13N 36°01' E 141°03'812.4
2014-Sep-15 22:33N 35°53' E 141°00'1312.5
2014-Sep-15 21:33N 35°41' E 140°58'1312.6
2014-Sep-15 20:33N 35°31' E 140°48'4113.5
2014-Sep-15 17:30N 34°60' E 140°15'1615.1
2014-Sep-15 16:24N 34°51' E 139°58'1113.1
2014-Sep-15 15:33N 34°52' E 139°45'1211.7
2014-Sep-15 14:33N 35°04' E 139°43'1212.4
2014-Sep-15 13:33N 35°16' E 139°46'1111.0
2014-Sep-15 12:33N 35°27' E 139°46'4 3.5
2014-Sep-15 11:18N 35°31' E 139°46'0 0.0
2014-Sep-15 10:33N 35°31' E 139°46'0 0.0
2014-Sep-15 09:30N 35°31' E 139°46'0 0.0
2014-Sep-15 08:30N 35°31' E 139°46'0 0.0
2014-Sep-15 07:30N 35°31' E 139°46'0 0.0
2014-Sep-15 06:24N 35°31' E 139°46'0 0.0
2014-Sep-15 05:30N 35°31' E 139°46'0 0.0
2014-Sep-15 04:30N 35°31' E 139°46'2 2.5
2014-Sep-15 03:33N 35°30' E 139°44'6 5.7
2014-Sep-15 02:33N 35°24' E 139°45'0 0.0
2014-Sep-15 01:33N 35°24' E 139°45'0 0.0
2014-Sep-15 00:30N 35°24' E 139°45'0 0.0
2014-Sep-14 23:33N 35°24' E 139°45'0 0.0
2014-Sep-14 22:33N 35°24' E 139°45'0 0.0
2014-Sep-14 21:33N 35°24' E 139°45'0 0.0
2014-Sep-14 20:33N 35°24' E 139°45'0 0.0
2014-Sep-14 19:33N 35°24' E 139°45'0 0.0
2014-Sep-14 18:33N 35°24' E 139°45'0 0.0
2014-Sep-14 17:33N 35°24' E 139°45'0 0.0
2014-Sep-14 16:33N 35°24' E 139°45'0 0.0
2014-Sep-14 15:30N 35°24' E 139°45'0 0.0
2014-Sep-14 14:33N 35°24' E 139°45'0 0.0
2014-Sep-14 13:33N 35°24' E 139°45'0 0.0
2014-Sep-14 12:33N 35°24' E 139°45'0 0.0
2014-Sep-14 11:33N 35°24' E 139°45'0 0.0
2014-Sep-14 10:33N 35°24' E 139°45'0 0.0
2014-Sep-14 09:30N 35°24' E 139°45'0 0.1
2014-Sep-14 08:33N 35°24' E 139°45'0 0.0
2014-Sep-14 07:33N 35°24' E 139°45'0 0.0
2014-Sep-14 06:33N 35°24' E 139°45'0 0.0
2014-Sep-14 05:33N 35°24' E 139°45'9 9.0
2014-Sep-14 04:33N 35°15' E 139°47'1312.8
2014-Sep-14 03:33N 35°03' E 139°44'19 8.9
2014-Sep-14 01:26N 34°56' E 140°06'5113.0
2014-Sep-13 21:29N 35°33' E 140°50'1314.0
2014-Sep-13 20:32N 35°44' E 140°58'1414.6
2014-Sep-13 19:33N 35°59' E 141°00'1514.7
2014-Sep-13 18:33N 36°13' E 141°01'1514.9
2014-Sep-13 17:33N 36°28' E 141°02'32 1.6
2014-Sep-12 21:14N 37°00' E 141°07'811.3
2014-Sep-12 20:33N 36°53' E 141°05'1512.1
2014-Sep-12 19:20N 36°38' E 141°04'1112.0
2014-Sep-12 18:25N 36°27' E 141°02'1011.7
2014-Sep-12 17:33N 36°17' E 141°01'1211.6
2014-Sep-12 16:34N 36°05' E 141°01'1212.1
2014-Sep-12 15:33N 35°53' E 140°59'1212.2
2014-Sep-12 14:33N 35°41' E 140°58'1312.8
2014-Sep-12 13:33N 35°31' E 140°48'1413.5
2014-Sep-12 12:33N 35°20' E 140°38'2914.6
2014-Sep-12 10:33N 34°59' E 140°13'1614.0
2014-Sep-12 09:25N 34°50' E 139°58'1112.5
2014-Sep-12 08:33N 34°52' E 139°44'1110.9
2014-Sep-12 07:33N 35°02' E 139°43'1212.3
2014-Sep-12 06:33N 35°14' E 139°46'1110.7
2014-Sep-12 05:33N 35°25' E 139°43'6 5.1
2014-Sep-12 04:28N 35°30' E 139°45'0 0.0
2014-Sep-12 03:31N 35°30' E 139°45'0 0.0
2014-Sep-12 02:31N 35°30' E 139°45'0 0.0
2014-Sep-12 01:31N 35°30' E 139°45'0 0.0
2014-Sep-12 00:33N 35°30' E 139°45'4 3.8
2014-Sep-11 23:33N 35°27' E 139°43'3 2.7
2014-Sep-11 22:32N 35°24' E 139°45'0 0.0
2014-Sep-11 20:31N 35°24' E 139°45'0 0.0
2014-Sep-11 19:31N 35°24' E 139°45'0 0.0
2014-Sep-11 18:28N 35°24' E 139°45'0 0.0
2014-Sep-11 17:22N 35°24' E 139°45'0 0.1
2014-Sep-11 16:16N 35°24' E 139°45'0 0.0
2014-Sep-11 15:31N 35°24' E 139°45'0 0.0
2014-Sep-11 14:31N 35°24' E 139°45'0 0.0
2014-Sep-11 13:31N 35°24' E 139°45'0 0.0
2014-Sep-11 12:31N 35°24' E 139°45'7 7.2
2014-Sep-11 11:33N 35°31' E 139°46'0 0.1
2014-Sep-11 10:32N 35°31' E 139°46'0 0.0
2014-Sep-11 09:32N 35°31' E 139°46'0 0.0
2014-Sep-11 08:32N 35°31' E 139°46'1 0.9
2014-Sep-11 07:33N 35°30' E 139°46'0 0.0
2014-Sep-11 06:33N 35°30' E 139°46'0 0.0
2014-Sep-11 05:32N 35°30' E 139°46'0 0.0
2014-Sep-11 04:32N 35°30' E 139°46'0 0.0
2014-Sep-11 03:33N 35°30' E 139°46'0 0.0
2014-Sep-11 02:33N 35°30' E 139°46'4 4.1
2014-Sep-11 01:33N 35°27' E 139°43'7 7.0
2014-Sep-11 00:32N 35°31' E 139°51'0 0.0
2014-Sep-10 23:29N 35°31' E 139°51'0 0.0
2014-Sep-10 22:29N 35°31' E 139°51'0 0.0
2014-Sep-10 21:29N 35°31' E 139°51'0 0.1
2014-Sep-10 20:32N 35°31' E 139°51'0 0.0
2014-Sep-10 19:32N 35°31' E 139°51'0 0.0
2014-Sep-10 18:33N 35°31' E 139°51'9 9.3
2014-Sep-10 17:33N 35°22' E 139°45'1212.2
2014-Sep-10 16:34N 35°10' E 139°47'1413.7
2014-Sep-10 15:33N 34°57' E 139°44'1410.2
2014-Sep-10 14:11N 34°54' E 140°01'810.8
2014-Sep-10 13:26N 34°58' E 140°09'2210.1
2014-Sep-10 11:13N 35°12' E 140°31'1012.2
2014-Sep-10 10:24N 35°20' E 140°37'1213.3
2014-Sep-10 09:31N 35°30' E 140°45'1213.0
2014-Sep-10 08:33N 35°40' E 140°55'  
2014-Sep-07 17:30N 36°44' E 141°12'2311.7
2014-Sep-07 15:31N 36°21' E 141°06'1211.5
2014-Sep-07 14:31N 36°10' E 141°04'1212.0
2014-Sep-07 13:33N 35°58' E 141°02'1212.2
2014-Sep-07 12:34N 35°47' E 140°59'1211.5
2014-Sep-07 11:33N 35°36' E 140°53'1312.1
2014-Sep-07 10:29N 35°26' E 140°44'1412.2
2014-Sep-07 09:20N 35°14' E 140°34'1313.2
2014-Sep-07 08:19N 35°04' E 140°23'1013.5
2014-Sep-07 07:33N 34°59' E 140°12'1313.4
2014-Sep-07 06:33N 34°51' E 139°59'1813.5
2014-Sep-07 05:15N 34°43' E 139°40'23410.7
2014-Sep-06 07:25N 34°00' E 135°02'910.0
2014-Sep-06 06:33N 34°08' E 135°06'1 0.2
2014-Sep-06 00:15N 34°07' E 135°07'2 2.4
2014-Sep-05 23:27N 34°09' E 135°08'  
Track history (hours):
 
Tides and Currents Weather Stations Pressure Air Temp Water Temp Dewpoint Dewpoint Depression Visibility Wind Speed Wind Dir Waves Ship Positions

New Yoshino

Last reported at 2014-Sep-15 23:13 UTC. Time now 2014-Sep-16 02:54 UTC.
Position N 36°01' E 141°03'.

Length 102 m; draft 6.7 m.

Type: Tanker. MMSI: 431300724.

Date/timePositionNaut miles runAvg speedWind from/ knotsBaromVisibWave heightAir tempDewpointWater temp
2014-Sep-15 23:13N 36°01' E 141°03'812.4
2014-Sep-15 22:33N 35°53' E 141°00'1312.5
2014-Sep-15 21:33N 35°41' E 140°58'1312.6
2014-Sep-15 20:33N 35°31' E 140°48'4113.5
2014-Sep-15 17:30N 34°60' E 140°15'1615.1
2014-Sep-15 16:24N 34°51' E 139°58'1113.1
2014-Sep-15 15:33N 34°52' E 139°45'1211.7
2014-Sep-15 14:33N 35°04' E 139°43'1212.4
2014-Sep-15 13:33N 35°16' E 139°46'1111.0
2014-Sep-15 12:33N 35°27' E 139°46'4 3.5
2014-Sep-15 11:18N 35°31' E 139°46'0 0.0
2014-Sep-15 10:33N 35°31' E 139°46'0 0.0
2014-Sep-15 09:30N 35°31' E 139°46'0 0.0
2014-Sep-15 08:30N 35°31' E 139°46'0 0.0
2014-Sep-15 07:30N 35°31' E 139°46'0 0.0
2014-Sep-15 06:24N 35°31' E 139°46'0 0.0
2014-Sep-15 05:30N 35°31' E 139°46'0 0.0
2014-Sep-15 04:30N 35°31' E 139°46'2 2.5
2014-Sep-15 03:33N 35°30' E 139°44'6 5.7
2014-Sep-15 02:33N 35°24' E 139°45'0 0.0
2014-Sep-15 01:33N 35°24' E 139°45'0 0.0
2014-Sep-15 00:30N 35°24' E 139°45'0 0.0
2014-Sep-14 23:33N 35°24' E 139°45'0 0.0
2014-Sep-14 22:33N 35°24' E 139°45'0 0.0
2014-Sep-14 21:33N 35°24' E 139°45'0 0.0
2014-Sep-14 20:33N 35°24' E 139°45'0 0.0
2014-Sep-14 19:33N 35°24' E 139°45'0 0.0
2014-Sep-14 18:33N 35°24' E 139°45'0 0.0
2014-Sep-14 17:33N 35°24' E 139°45'0 0.0
2014-Sep-14 16:33N 35°24' E 139°45'0 0.0
2014-Sep-14 15:30N 35°24' E 139°45'0 0.0
2014-Sep-14 14:33N 35°24' E 139°45'0 0.0
2014-Sep-14 13:33N 35°24' E 139°45'0 0.0
2014-Sep-14 12:33N 35°24' E 139°45'0 0.0
2014-Sep-14 11:33N 35°24' E 139°45'0 0.0
2014-Sep-14 10:33N 35°24' E 139°45'0 0.0
2014-Sep-14 09:30N 35°24' E 139°45'0 0.1
2014-Sep-14 08:33N 35°24' E 139°45'0 0.0
2014-Sep-14 07:33N 35°24' E 139°45'0 0.0
2014-Sep-14 06:33N 35°24' E 139°45'0 0.0
2014-Sep-14 05:33N 35°24' E 139°45'9 9.0
2014-Sep-14 04:33N 35°15' E 139°47'1312.8
2014-Sep-14 03:33N 35°03' E 139°44'19 8.9
2014-Sep-14 01:26N 34°56' E 140°06'5113.0
2014-Sep-13 21:29N 35°33' E 140°50'1314.0
2014-Sep-13 20:32N 35°44' E 140°58'1414.6
2014-Sep-13 19:33N 35°59' E 141°00'1514.7
2014-Sep-13 18:33N 36°13' E 141°01'1514.9
2014-Sep-13 17:33N 36°28' E 141°02'32 1.6
2014-Sep-12 21:14N 37°00' E 141°07'811.3
2014-Sep-12 20:33N 36°53' E 141°05'1512.1
2014-Sep-12 19:20N 36°38' E 141°04'1112.0
2014-Sep-12 18:25N 36°27' E 141°02'1011.7
2014-Sep-12 17:33N 36°17' E 141°01'1211.6
2014-Sep-12 16:34N 36°05' E 141°01'1212.1
2014-Sep-12 15:33N 35°53' E 140°59'1212.2
2014-Sep-12 14:33N 35°41' E 140°58'1312.8
2014-Sep-12 13:33N 35°31' E 140°48'1413.5
2014-Sep-12 12:33N 35°20' E 140°38'2914.6
2014-Sep-12 10:33N 34°59' E 140°13'1614.0
2014-Sep-12 09:25N 34°50' E 139°58'1112.5
2014-Sep-12 08:33N 34°52' E 139°44'1110.9
2014-Sep-12 07:33N 35°02' E 139°43'1212.3
2014-Sep-12 06:33N 35°14' E 139°46'1110.7
2014-Sep-12 05:33N 35°25' E 139°43'6 5.1
2014-Sep-12 04:28N 35°30' E 139°45'0 0.0
2014-Sep-12 03:31N 35°30' E 139°45'0 0.0
2014-Sep-12 02:31N 35°30' E 139°45'0 0.0
2014-Sep-12 01:31N 35°30' E 139°45'0 0.0
2014-Sep-12 00:33N 35°30' E 139°45'4 3.8
2014-Sep-11 23:33N 35°27' E 139°43'3 2.7
2014-Sep-11 22:32N 35°24' E 139°45'0 0.0
2014-Sep-11 20:31N 35°24' E 139°45'0 0.0
2014-Sep-11 19:31N 35°24' E 139°45'0 0.0
2014-Sep-11 18:28N 35°24' E 139°45'0 0.0
2014-Sep-11 17:22N 35°24' E 139°45'0 0.1
2014-Sep-11 16:16N 35°24' E 139°45'0 0.0
2014-Sep-11 15:31N 35°24' E 139°45'0 0.0
2014-Sep-11 14:31N 35°24' E 139°45'0 0.0
2014-Sep-11 13:31N 35°24' E 139°45'0 0.0
2014-Sep-11 12:31N 35°24' E 139°45'7 7.2
2014-Sep-11 11:33N 35°31' E 139°46'0 0.1
2014-Sep-11 10:32N 35°31' E 139°46'0 0.0
2014-Sep-11 09:32N 35°31' E 139°46'0 0.0
2014-Sep-11 08:32N 35°31' E 139°46'1 0.9
2014-Sep-11 07:33N 35°30' E 139°46'0 0.0
2014-Sep-11 06:33N 35°30' E 139°46'0 0.0
2014-Sep-11 05:32N 35°30' E 139°46'0 0.0
2014-Sep-11 04:32N 35°30' E 139°46'0 0.0
2014-Sep-11 03:33N 35°30' E 139°46'0 0.0
2014-Sep-11 02:33N 35°30' E 139°46'4 4.1
2014-Sep-11 01:33N 35°27' E 139°43'7 7.0
2014-Sep-11 00:32N 35°31' E 139°51'0 0.0
2014-Sep-10 23:29N 35°31' E 139°51'0 0.0
2014-Sep-10 22:29N 35°31' E 139°51'0 0.0
2014-Sep-10 21:29N 35°31' E 139°51'0 0.1
2014-Sep-10 20:32N 35°31' E 139°51'0 0.0
2014-Sep-10 19:32N 35°31' E 139°51'0 0.0
2014-Sep-10 18:33N 35°31' E 139°51'9 9.3
2014-Sep-10 17:33N 35°22' E 139°45'1212.2
2014-Sep-10 16:34N 35°10' E 139°47'1413.7
2014-Sep-10 15:33N 34°57' E 139°44'1410.2
2014-Sep-10 14:11N 34°54' E 140°01'810.8
2014-Sep-10 13:26N 34°58' E 140°09'2210.1
2014-Sep-10 11:13N 35°12' E 140°31'1012.2
2014-Sep-10 10:24N 35°20' E 140°37'1213.3
2014-Sep-10 09:31N 35°30' E 140°45'1213.0
2014-Sep-10 08:33N 35°40' E 140°55'  
2014-Sep-07 17:30N 36°44' E 141°12'2311.7
2014-Sep-07 15:31N 36°21' E 141°06'1211.5
2014-Sep-07 14:31N 36°10' E 141°04'1212.0
2014-Sep-07 13:33N 35°58' E 141°02'1212.2
2014-Sep-07 12:34N 35°47' E 140°59'1211.5
2014-Sep-07 11:33N 35°36' E 140°53'1312.1
2014-Sep-07 10:29N 35°26' E 140°44'1412.2
2014-Sep-07 09:20N 35°14' E 140°34'1313.2
2014-Sep-07 08:19N 35°04' E 140°23'1013.5
2014-Sep-07 07:33N 34°59' E 140°12'1313.4
2014-Sep-07 06:33N 34°51' E 139°59'1813.5
2014-Sep-07 05:15N 34°43' E 139°40'23410.7
2014-Sep-06 07:25N 34°00' E 135°02'910.0
2014-Sep-06 06:33N 34°08' E 135°06'1 0.2
2014-Sep-06 00:15N 34°07' E 135°07'2 2.4
2014-Sep-05 23:27N 34°09' E 135°08'  

Dump ship's entire track history